Saint-Gerard, Canada
Current Conditions -  °F | °C
As of 7:00 PM on Wednesday 28 Jan 2015 (Local Time) from CYSC Reporting Station
Clear Clear  
Wind Chill:   Ceiling: Unl
Heat Index:   Visibility: 9mi
Dew Point: -6°   Wind: 2mph
Humidity: 78%   Direction: NA
Pressure: 30.19"   Gusts: NA
Location:  45.77°N, 71.42°W
Report Text: CYSC 290000Z AUTO VRB02KT 9SM CLR M18/M21 A3019 RMK SLP246
Loading
Personal Weather Stations






























Interactive Weather Map New forecast layout! Learn more

10-Day Weather Forecast

Advertisements
Track Severe Weather on mobile